sensor_id;sensor_type;location;lat;lon;timestamp;P1;durP1;ratioP1;P2;durP2;ratioP2
36799;SDS011;22752;51.960;5.886;2024-02-21T00:02:19;31.07;;;14.50;;
36799;SDS011;22752;51.960;5.886;2024-02-21T00:04:44;31.27;;;14.40;;
36799;SDS011;22752;51.960;5.886;2024-02-21T00:07:10;31.03;;;14.17;;
36799;SDS011;22752;51.960;5.886;2024-02-21T00:09:36;26.87;;;14.60;;
36799;SDS011;22752;51.960;5.886;2024-02-21T00:12:01;31.03;;;14.37;;
36799;SDS011;22752;51.960;5.886;2024-02-21T00:14:28;23.33;;;13.00;;
36799;SDS011;22752;51.960;5.886;2024-02-21T00:16:53;26.87;;;12.57;;
36799;SDS011;22752;51.960;5.886;2024-02-21T00:19:19;32.27;;;14.23;;
36799;SDS011;22752;51.960;5.886;2024-02-21T00:21:45;33.83;;;14.73;;
36799;SDS011;22752;51.960;5.886;2024-02-21T00:24:10;25.63;;;13.07;;
36799;SDS011;22752;51.960;5.886;2024-02-21T00:26:36;29.87;;;13.63;;
36799;SDS011;22752;51.960;5.886;2024-02-21T00:29:01;27.67;;;13.23;;
36799;SDS011;22752;51.960;5.886;2024-02-21T00:31:27;26.00;;;12.63;;
36799;SDS011;22752;51.960;5.886;2024-02-21T00:33:53;25.07;;;13.03;;
36799;SDS011;22752;51.960;5.886;2024-02-21T00:36:18;23.37;;;14.10;;
36799;SDS011;22752;51.960;5.886;2024-02-21T00:38:44;27.80;;;12.93;;
36799;SDS011;22752;51.960;5.886;2024-02-21T00:41:10;28.93;;;12.50;;
36799;SDS011;22752;51.960;5.886;2024-02-21T00:43:36;28.23;;;14.73;;
36799;SDS011;22752;51.960;5.886;2024-02-21T00:46:01;32.30;;;14.03;;
36799;SDS011;22752;51.960;5.886;2024-02-21T00:48:27;30.60;;;14.80;;
36799;SDS011;22752;51.960;5.886;2024-02-21T00:50:53;28.10;;;13.30;;
36799;SDS011;22752;51.960;5.886;2024-02-21T00:53:18;29.20;;;14.37;;
36799;SDS011;22752;51.960;5.886;2024-02-21T00:55:44;30.57;;;13.27;;
36799;SDS011;22752;51.960;5.886;2024-02-21T00:58:10;27.47;;;12.40;;
36799;SDS011;22752;51.960;5.886;2024-02-21T01:00:36;32.63;;;12.70;;
36799;SDS011;22752;51.960;5.886;2024-02-21T01:03:01;29.40;;;13.07;;
36799;SDS011;22752;51.960;5.886;2024-02-21T01:05:28;28.30;;;13.37;;
36799;SDS011;22752;51.960;5.886;2024-02-21T01:07:54;32.60;;;13.47;;
36799;SDS011;22752;51.960;5.886;2024-02-21T01:10:19;25.70;;;12.73;;
36799;SDS011;22752;51.960;5.886;2024-02-21T01:12:45;25.80;;;13.57;;
36799;SDS011;22752;51.960;5.886;2024-02-21T01:15:11;25.60;;;11.90;;
36799;SDS011;22752;51.960;5.886;2024-02-21T01:17:37;28.83;;;12.43;;
36799;SDS011;22752;51.960;5.886;2024-02-21T01:20:03;23.30;;;12.03;;
36799;SDS011;22752;51.960;5.886;2024-02-21T01:22:30;29.43;;;12.43;;
36799;SDS011;22752;51.960;5.886;2024-02-21T01:24:56;33.90;;;12.70;;
36799;SDS011;22752;51.960;5.886;2024-02-21T01:27:21;29.17;;;13.33;;
36799;SDS011;22752;51.960;5.886;2024-02-21T01:29:47;28.57;;;13.20;;
36799;SDS011;22752;51.960;5.886;2024-02-21T01:32:14;24.03;;;12.70;;
36799;SDS011;22752;51.960;5.886;2024-02-21T01:34:40;27.10;;;12.57;;
36799;SDS011;22752;51.960;5.886;2024-02-21T01:37:06;25.87;;;11.70;;
36799;SDS011;22752;51.960;5.886;2024-02-21T01:39:32;25.17;;;12.30;;
36799;SDS011;22752;51.960;5.886;2024-02-21T01:41:58;25.17;;;12.07;;
36799;SDS011;22752;51.960;5.886;2024-02-21T01:44:25;24.33;;;12.47;;
36799;SDS011;22752;51.960;5.886;2024-02-21T01:46:51;30.90;;;12.77;;
36799;SDS011;22752;51.960;5.886;2024-02-21T01:49:18;24.53;;;12.27;;
36799;SDS011;22752;51.960;5.886;2024-02-21T01:51:45;24.97;;;12.27;;
36799;SDS011;22752;51.960;5.886;2024-02-21T01:54:13;23.97;;;11.33;;
36799;SDS011;22752;51.960;5.886;2024-02-21T01:56:40;28.80;;;12.67;;
36799;SDS011;22752;51.960;5.886;2024-02-21T01:59:05;25.40;;;11.93;;
36799;SDS011;22752;51.960;5.886;2024-02-21T02:01:32;21.53;;;12.10;;
36799;SDS011;22752;51.960;5.886;2024-02-21T02:03:57;32.13;;;12.07;;
36799;SDS011;22752;51.960;5.886;2024-02-21T02:06:24;22.57;;;11.57;;
36799;SDS011;22752;51.960;5.886;2024-02-21T02:08:50;31.13;;;13.23;;
36799;SDS011;22752;51.960;5.886;2024-02-21T02:11:16;27.83;;;11.57;;
36799;SDS011;22752;51.960;5.886;2024-02-21T02:13:42;21.10;;;10.70;;
36799;SDS011;22752;51.960;5.886;2024-02-21T02:16:08;29.13;;;13.03;;
36799;SDS011;22752;51.960;5.886;2024-02-21T02:18:33;20.90;;;11.63;;
36799;SDS011;22752;51.960;5.886;2024-02-21T02:20:59;25.63;;;12.10;;
36799;SDS011;22752;51.960;5.886;2024-02-21T02:23:29;20.13;;;10.97;;
36799;SDS011;22752;51.960;5.886;2024-02-21T02:25:56;21.23;;;11.03;;
36799;SDS011;22752;51.960;5.886;2024-02-21T02:28:23;21.57;;;11.63;;
36799;SDS011;22752;51.960;5.886;2024-02-21T02:30:51;24.87;;;11.60;;
36799;SDS011;22752;51.960;5.886;2024-02-21T02:33:17;27.33;;;12.23;;
36799;SDS011;22752;51.960;5.886;2024-02-21T02:35:45;26.80;;;13.23;;
36799;SDS011;22752;51.960;5.886;2024-02-21T02:38:11;27.10;;;12.27;;
36799;SDS011;22752;51.960;5.886;2024-02-21T02:40:38;21.80;;;13.00;;
36799;SDS011;22752;51.960;5.886;2024-02-21T02:43:06;28.07;;;12.50;;
36799;SDS011;22752;51.960;5.886;2024-02-21T02:45:38;22.42;;;12.50;;
36799;SDS011;22752;51.960;5.886;2024-02-21T02:48:05;28.40;;;13.43;;
36799;SDS011;22752;51.960;5.886;2024-02-21T02:50:31;26.90;;;13.23;;
36799;SDS011;22752;51.960;5.886;2024-02-21T02:52:58;24.97;;;13.53;;
36799;SDS011;22752;51.960;5.886;2024-02-21T02:55:23;24.07;;;11.97;;
36799;SDS011;22752;51.960;5.886;2024-02-21T02:57:51;28.30;;;12.70;;
36799;SDS011;22752;51.960;5.886;2024-02-21T03:00:17;34.00;;;12.63;;
36799;SDS011;22752;51.960;5.886;2024-02-21T03:02:43;28.40;;;13.27;;
36799;SDS011;22752;51.960;5.886;2024-02-21T03:05:14;27.03;;;12.20;;
36799;SDS011;22752;51.960;5.886;2024-02-21T03:10:10;22.83;;;11.03;;
36799;SDS011;22752;51.960;5.886;2024-02-21T03:12:36;30.50;;;13.00;;
36799;SDS011;22752;51.960;5.886;2024-02-21T03:15:03;23.03;;;12.23;;
36799;SDS011;22752;51.960;5.886;2024-02-21T03:17:29;28.03;;;11.77;;
36799;SDS011;22752;51.960;5.886;2024-02-21T03:19:55;25.70;;;11.93;;
36799;SDS011;22752;51.960;5.886;2024-02-21T03:22:21;24.87;;;11.97;;
36799;SDS011;22752;51.960;5.886;2024-02-21T03:24:47;22.40;;;10.53;;
36799;SDS011;22752;51.960;5.886;2024-02-21T03:27:13;26.73;;;10.93;;
36799;SDS011;22752;51.960;5.886;2024-02-21T03:29:39;28.07;;;11.03;;
36799;SDS011;22752;51.960;5.886;2024-02-21T03:32:04;23.33;;;11.57;;
36799;SDS011;22752;51.960;5.886;2024-02-21T03:34:30;27.50;;;11.50;;
36799;SDS011;22752;51.960;5.886;2024-02-21T03:36:55;19.87;;;10.23;;
36799;SDS011;22752;51.960;5.886;2024-02-21T03:39:21;27.80;;;11.20;;
36799;SDS011;22752;51.960;5.886;2024-02-21T03:41:47;23.27;;;10.33;;
36799;SDS011;22752;51.960;5.886;2024-02-21T03:44:13;20.97;;;10.43;;
36799;SDS011;22752;51.960;5.886;2024-02-21T03:46:39;22.20;;;10.50;;
36799;SDS011;22752;51.960;5.886;2024-02-21T03:49:05;23.50;;;9.67;;
36799;SDS011;22752;51.960;5.886;2024-02-21T03:51:30;20.90;;;9.47;;
36799;SDS011;22752;51.960;5.886;2024-02-21T03:53:56;20.37;;;9.40;;
36799;SDS011;22752;51.960;5.886;2024-02-21T03:56:22;19.90;;;9.27;;
36799;SDS011;22752;51.960;5.886;2024-02-21T03:58:49;16.40;;;8.63;;
36799;SDS011;22752;51.960;5.886;2024-02-21T04:01:15;23.27;;;8.03;;
36799;SDS011;22752;51.960;5.886;2024-02-21T04:03:42;22.87;;;8.50;;
36799;SDS011;22752;51.960;5.886;2024-02-21T04:06:08;23.37;;;8.67;;
36799;SDS011;22752;51.960;5.886;2024-02-21T04:08:34;20.23;;;9.13;;
36799;SDS011;22752;51.960;5.886;2024-02-21T04:11:00;24.83;;;8.77;;
36799;SDS011;22752;51.960;5.886;2024-02-21T04:13:26;18.03;;;8.50;;
36799;SDS011;22752;51.960;5.886;2024-02-21T04:15:52;18.47;;;7.40;;
36799;SDS011;22752;51.960;5.886;2024-02-21T04:18:18;23.13;;;8.20;;
36799;SDS011;22752;51.960;5.886;2024-02-21T04:20:43;17.67;;;7.37;;
36799;SDS011;22752;51.960;5.886;2024-02-21T04:23:09;20.67;;;7.90;;
36799;SDS011;22752;51.960;5.886;2024-02-21T04:25:35;17.47;;;7.50;;
36799;SDS011;22752;51.960;5.886;2024-02-21T04:28:04;18.47;;;7.53;;
36799;SDS011;22752;51.960;5.886;2024-02-21T04:30:30;17.47;;;7.60;;
36799;SDS011;22752;51.960;5.886;2024-02-21T04:32:56;18.10;;;7.80;;
36799;SDS011;22752;51.960;5.886;2024-02-21T04:35:21;16.33;;;6.97;;
36799;SDS011;22752;51.960;5.886;2024-02-21T04:37:47;22.90;;;7.73;;
36799;SDS011;22752;51.960;5.886;2024-02-21T04:40:13;16.00;;;6.40;;
36799;SDS011;22752;51.960;5.886;2024-02-21T04:42:39;17.80;;;7.30;;
36799;SDS011;22752;51.960;5.886;2024-02-21T04:45:05;14.30;;;6.00;;
36799;SDS011;22752;51.960;5.886;2024-02-21T04:47:31;18.40;;;7.07;;
36799;SDS011;22752;51.960;5.886;2024-02-21T04:49:57;19.23;;;6.73;;
36799;SDS011;22752;51.960;5.886;2024-02-21T04:52:23;15.13;;;7.80;;
36799;SDS011;22752;51.960;5.886;2024-02-21T04:54:49;19.50;;;7.40;;
36799;SDS011;22752;51.960;5.886;2024-02-21T04:57:16;21.60;;;6.80;;
36799;SDS011;22752;51.960;5.886;2024-02-21T04:59:46;15.17;;;6.73;;
36799;SDS011;22752;51.960;5.886;2024-02-21T05:02:13;13.23;;;6.80;;
36799;SDS011;22752;51.960;5.886;2024-02-21T05:04:38;14.27;;;6.40;;
36799;SDS011;22752;51.960;5.886;2024-02-21T05:07:06;16.20;;;7.80;;
36799;SDS011;22752;51.960;5.886;2024-02-21T05:09:36;18.50;;;8.07;;
36799;SDS011;22752;51.960;5.886;2024-02-21T05:12:02;18.70;;;7.87;;
36799;SDS011;22752;51.960;5.886;2024-02-21T05:14:28;14.63;;;7.07;;
36799;SDS011;22752;51.960;5.886;2024-02-21T05:16:54;18.57;;;8.50;;
36799;SDS011;22752;51.960;5.886;2024-02-21T05:19:20;16.93;;;7.90;;
36799;SDS011;22752;51.960;5.886;2024-02-21T05:21:45;18.50;;;8.23;;
36799;SDS011;22752;51.960;5.886;2024-02-21T05:24:11;21.43;;;9.80;;
36799;SDS011;22752;51.960;5.886;2024-02-21T05:26:37;19.47;;;9.07;;
36799;SDS011;22752;51.960;5.886;2024-02-21T05:29:03;18.47;;;9.20;;
36799;SDS011;22752;51.960;5.886;2024-02-21T05:34:16;19.93;;;9.10;;
36799;SDS011;22752;51.960;5.886;2024-02-21T05:36:46;19.23;;;9.70;;
36799;SDS011;22752;51.960;5.886;2024-02-21T05:39:12;22.37;;;10.07;;
36799;SDS011;22752;51.960;5.886;2024-02-21T05:41:38;19.40;;;9.87;;
36799;SDS011;22752;51.960;5.886;2024-02-21T05:44:04;18.07;;;10.17;;
36799;SDS011;22752;51.960;5.886;2024-02-21T05:46:29;17.60;;;9.33;;
36799;SDS011;22752;51.960;5.886;2024-02-21T05:48:55;20.43;;;10.97;;
36799;SDS011;22752;51.960;5.886;2024-02-21T05:51:21;20.73;;;10.80;;
36799;SDS011;22752;51.960;5.886;2024-02-21T05:53:46;20.00;;;10.63;;
36799;SDS011;22752;51.960;5.886;2024-02-21T05:56:15;18.83;;;9.83;;
36799;SDS011;22752;51.960;5.886;2024-02-21T05:58:40;24.40;;;10.80;;
36799;SDS011;22752;51.960;5.886;2024-02-21T06:01:06;22.13;;;9.97;;
36799;SDS011;22752;51.960;5.886;2024-02-21T06:03:33;20.70;;;10.70;;
36799;SDS011;22752;51.960;5.886;2024-02-21T06:05:59;20.67;;;10.57;;
36799;SDS011;22752;51.960;5.886;2024-02-21T06:08:25;16.37;;;10.23;;
36799;SDS011;22752;51.960;5.886;2024-02-21T06:10:51;21.80;;;10.33;;
36799;SDS011;22752;51.960;5.886;2024-02-21T06:13:23;27.37;;;10.97;;
36799;SDS011;22752;51.960;5.886;2024-02-21T06:15:49;18.33;;;9.77;;
36799;SDS011;22752;51.960;5.886;2024-02-21T06:18:16;25.60;;;10.47;;
36799;SDS011;22752;51.960;5.886;2024-02-21T06:20:42;18.83;;;10.10;;
36799;SDS011;22752;51.960;5.886;2024-02-21T06:23:08;18.77;;;9.83;;
36799;SDS011;22752;51.960;5.886;2024-02-21T06:25:34;20.83;;;9.73;;
36799;SDS011;22752;51.960;5.886;2024-02-21T06:28:00;18.50;;;9.30;;
36799;SDS011;22752;51.960;5.886;2024-02-21T06:30:26;24.03;;;10.17;;
36799;SDS011;22752;51.960;5.886;2024-02-21T06:32:52;18.77;;;9.13;;
36799;SDS011;22752;51.960;5.886;2024-02-21T06:35:17;23.17;;;9.07;;
36799;SDS011;22752;51.960;5.886;2024-02-21T06:37:44;15.40;;;7.43;;
36799;SDS011;22752;51.960;5.886;2024-02-21T06:40:15;16.77;;;8.40;;
36799;SDS011;22752;51.960;5.886;2024-02-21T06:42:41;20.10;;;9.07;;
36799;SDS011;22752;51.960;5.886;2024-02-21T06:45:07;17.37;;;8.17;;
36799;SDS011;22752;51.960;5.886;2024-02-21T06:47:33;18.37;;;7.80;;
36799;SDS011;22752;51.960;5.886;2024-02-21T06:49:58;18.33;;;8.60;;
36799;SDS011;22752;51.960;5.886;2024-02-21T06:52:24;17.70;;;7.53;;
36799;SDS011;22752;51.960;5.886;2024-02-21T06:54:50;20.50;;;8.13;;
36799;SDS011;22752;51.960;5.886;2024-02-21T06:57:16;18.67;;;8.53;;
36799;SDS011;22752;51.960;5.886;2024-02-21T06:59:42;20.07;;;8.43;;
36799;SDS011;22752;51.960;5.886;2024-02-21T07:02:07;16.47;;;8.10;;
36799;SDS011;22752;51.960;5.886;2024-02-21T07:04:33;19.67;;;8.37;;
36799;SDS011;22752;51.960;5.886;2024-02-21T07:06:59;27.53;;;9.00;;
36799;SDS011;22752;51.960;5.886;2024-02-21T07:09:25;20.20;;;8.57;;
36799;SDS011;22752;51.960;5.886;2024-02-21T07:11:50;21.47;;;8.70;;
36799;SDS011;22752;51.960;5.886;2024-02-21T07:14:16;19.67;;;9.40;;
36799;SDS011;22752;51.960;5.886;2024-02-21T07:16:42;19.93;;;8.60;;
36799;SDS011;22752;51.960;5.886;2024-02-21T07:19:08;19.83;;;8.50;;
36799;SDS011;22752;51.960;5.886;2024-02-21T07:21:34;21.17;;;8.57;;
36799;SDS011;22752;51.960;5.886;2024-02-21T07:23:59;20.00;;;8.73;;
36799;SDS011;22752;51.960;5.886;2024-02-21T07:26:25;21.00;;;9.10;;
36799;SDS011;22752;51.960;5.886;2024-02-21T07:28:51;22.10;;;9.43;;
36799;SDS011;22752;51.960;5.886;2024-02-21T07:31:17;20.33;;;9.23;;
36799;SDS011;22752;51.960;5.886;2024-02-21T07:33:42;15.50;;;8.17;;
36799;SDS011;22752;51.960;5.886;2024-02-21T07:36:09;21.03;;;8.43;;
36799;SDS011;22752;51.960;5.886;2024-02-21T07:38:36;20.87;;;9.07;;
36799;SDS011;22752;51.960;5.886;2024-02-21T07:41:02;20.90;;;9.07;;
36799;SDS011;22752;51.960;5.886;2024-02-21T07:43:29;21.97;;;8.07;;
36799;SDS011;22752;51.960;5.886;2024-02-21T07:45:55;17.67;;;8.53;;
36799;SDS011;22752;51.960;5.886;2024-02-21T07:48:21;18.87;;;8.30;;
36799;SDS011;22752;51.960;5.886;2024-02-21T07:50:49;19.10;;;8.60;;
36799;SDS011;22752;51.960;5.886;2024-02-21T07:53:16;17.13;;;8.57;;
36799;SDS011;22752;51.960;5.886;2024-02-21T07:55:41;21.33;;;9.10;;
36799;SDS011;22752;51.960;5.886;2024-02-21T07:58:07;19.57;;;9.47;;
36799;SDS011;22752;51.960;5.886;2024-02-21T08:00:33;15.17;;;8.00;;
36799;SDS011;22752;51.960;5.886;2024-02-21T08:02:58;18.17;;;8.13;;
36799;SDS011;22752;51.960;5.886;2024-02-21T08:05:24;17.80;;;8.00;;
36799;SDS011;22752;51.960;5.886;2024-02-21T08:07:50;16.17;;;8.23;;
36799;SDS011;22752;51.960;5.886;2024-02-21T08:10:15;20.33;;;9.73;;
36799;SDS011;22752;51.960;5.886;2024-02-21T08:12:41;18.17;;;8.40;;
36799;SDS011;22752;51.960;5.886;2024-02-21T08:15:07;20.10;;;9.10;;
36799;SDS011;22752;51.960;5.886;2024-02-21T08:17:35;19.33;;;9.00;;
36799;SDS011;22752;51.960;5.886;2024-02-21T08:20:01;19.27;;;8.67;;
36799;SDS011;22752;51.960;5.886;2024-02-21T08:22:29;17.50;;;8.33;;
36799;SDS011;22752;51.960;5.886;2024-02-21T08:24:55;19.80;;;8.47;;
36799;SDS011;22752;51.960;5.886;2024-02-21T08:27:21;18.00;;;8.20;;
36799;SDS011;22752;51.960;5.886;2024-02-21T08:29:46;18.33;;;9.13;;
36799;SDS011;22752;51.960;5.886;2024-02-21T08:32:12;20.43;;;8.70;;
36799;SDS011;22752;51.960;5.886;2024-02-21T08:34:38;20.07;;;9.10;;
36799;SDS011;22752;51.960;5.886;2024-02-21T08:37:04;18.20;;;9.70;;
36799;SDS011;22752;51.960;5.886;2024-02-21T08:39:29;19.70;;;9.80;;
36799;SDS011;22752;51.960;5.886;2024-02-21T08:41:55;17.53;;;8.73;;
36799;SDS011;22752;51.960;5.886;2024-02-21T08:44:22;22.57;;;10.40;;
36799;SDS011;22752;51.960;5.886;2024-02-21T08:46:51;16.53;;;9.03;;
36799;SDS011;22752;51.960;5.886;2024-02-21T08:49:17;17.90;;;9.30;;
36799;SDS011;22752;51.960;5.886;2024-02-21T08:51:43;17.30;;;8.83;;
36799;SDS011;22752;51.960;5.886;2024-02-21T08:54:08;17.10;;;8.93;;
36799;SDS011;22752;51.960;5.886;2024-02-21T08:56:34;16.03;;;8.90;;
36799;SDS011;22752;51.960;5.886;2024-02-21T08:59:00;15.90;;;8.70;;
36799;SDS011;22752;51.960;5.886;2024-02-21T09:01:26;15.90;;;8.63;;
36799;SDS011;22752;51.960;5.886;2024-02-21T09:03:53;19.23;;;9.50;;
36799;SDS011;22752;51.960;5.886;2024-02-21T09:06:21;18.80;;;8.80;;
36799;SDS011;22752;51.960;5.886;2024-02-21T09:08:47;17.83;;;9.23;;
36799;SDS011;22752;51.960;5.886;2024-02-21T09:11:13;22.87;;;8.93;;
36799;SDS011;22752;51.960;5.886;2024-02-21T09:13:39;15.60;;;8.40;;
36799;SDS011;22752;51.960;5.886;2024-02-21T09:16:04;18.67;;;8.40;;
36799;SDS011;22752;51.960;5.886;2024-02-21T09:18:31;16.43;;;8.70;;
36799;SDS011;22752;51.960;5.886;2024-02-21T09:20:57;13.93;;;7.43;;
36799;SDS011;22752;51.960;5.886;2024-02-21T09:23:25;17.13;;;7.77;;
36799;SDS011;22752;51.960;5.886;2024-02-21T09:25:51;15.23;;;8.73;;
36799;SDS011;22752;51.960;5.886;2024-02-21T09:28:17;18.27;;;7.73;;
36799;SDS011;22752;51.960;5.886;2024-02-21T09:30:42;16.67;;;8.13;;
36799;SDS011;22752;51.960;5.886;2024-02-21T09:33:08;13.13;;;7.83;;
36799;SDS011;22752;51.960;5.886;2024-02-21T09:35:34;14.87;;;8.13;;
36799;SDS011;22752;51.960;5.886;2024-02-21T09:37:59;15.13;;;7.60;;
36799;SDS011;22752;51.960;5.886;2024-02-21T09:40:26;12.80;;;7.20;;
36799;SDS011;22752;51.960;5.886;2024-02-21T09:42:54;13.13;;;7.93;;
36799;SDS011;22752;51.960;5.886;2024-02-21T09:45:34;16.05;;;7.93;;
36799;SDS011;22752;51.960;5.886;2024-02-21T09:50:51;20.07;;;7.70;;
36799;SDS011;22752;51.960;5.886;2024-02-21T09:53:18;12.70;;;7.40;;
36799;SDS011;22752;51.960;5.886;2024-02-21T09:55:44;13.43;;;7.10;;
36799;SDS011;22752;51.960;5.886;2024-02-21T09:58:11;9.90;;;6.30;;
36799;SDS011;22752;51.960;5.886;2024-02-21T10:00:38;11.20;;;6.60;;
36799;SDS011;22752;51.960;5.886;2024-02-21T10:03:03;9.27;;;6.83;;
36799;SDS011;22752;51.960;5.886;2024-02-21T10:05:35;12.47;;;6.40;;
36799;SDS011;22752;51.960;5.886;2024-02-21T10:08:02;11.37;;;6.37;;
36799;SDS011;22752;51.960;5.886;2024-02-21T10:10:28;11.80;;;6.40;;
36799;SDS011;22752;51.960;5.886;2024-02-21T10:12:55;10.20;;;6.83;;
36799;SDS011;22752;51.960;5.886;2024-02-21T10:15:21;11.80;;;7.10;;
36799;SDS011;22752;51.960;5.886;2024-02-21T10:17:48;9.93;;;6.50;;
36799;SDS011;22752;51.960;5.886;2024-02-21T10:20:14;8.40;;;5.33;;
36799;SDS011;22752;51.960;5.886;2024-02-21T10:22:41;9.93;;;6.03;;
36799;SDS011;22752;51.960;5.886;2024-02-21T10:25:10;8.33;;;5.53;;
36799;SDS011;22752;51.960;5.886;2024-02-21T10:27:37;10.13;;;5.53;;
36799;SDS011;22752;51.960;5.886;2024-02-21T10:30:04;8.37;;;5.63;;
36799;SDS011;22752;51.960;5.886;2024-02-21T10:32:48;13.63;;;5.93;;
36799;SDS011;22752;51.960;5.886;2024-02-21T10:35:15;8.80;;;5.70;;
36799;SDS011;22752;51.960;5.886;2024-02-21T10:37:52;13.10;;;6.63;;
36799;SDS011;22752;51.960;5.886;2024-02-21T10:40:20;12.37;;;6.23;;
36799;SDS011;22752;51.960;5.886;2024-02-21T10:42:52;10.53;;;6.20;;
36799;SDS011;22752;51.960;5.886;2024-02-21T10:45:25;11.13;;;6.50;;
36799;SDS011;22752;51.960;5.886;2024-02-21T10:48:01;11.13;;;5.53;;
36799;SDS011;22752;51.960;5.886;2024-02-21T10:50:51;8.63;;;5.70;;
36799;SDS011;22752;51.960;5.886;2024-02-21T10:58:55;9.17;;;5.97;;
36799;SDS011;22752;51.960;5.886;2024-02-21T11:01:22;10.07;;;6.40;;
36799;SDS011;22752;51.960;5.886;2024-02-21T11:03:49;9.43;;;5.70;;
36799;SDS011;22752;51.960;5.886;2024-02-21T11:06:17;13.23;;;6.63;;
36799;SDS011;22752;51.960;5.886;2024-02-21T11:08:45;11.33;;;6.60;;
36799;SDS011;22752;51.960;5.886;2024-02-21T11:11:12;10.03;;;5.90;;
36799;SDS011;22752;51.960;5.886;2024-02-21T11:13:43;15.07;;;7.13;;
36799;SDS011;22752;51.960;5.886;2024-02-21T11:16:11;14.40;;;7.33;;
36799;SDS011;22752;51.960;5.886;2024-02-21T11:18:46;12.27;;;7.00;;
36799;SDS011;22752;51.960;5.886;2024-02-21T11:21:12;13.13;;;7.27;;
36799;SDS011;22752;51.960;5.886;2024-02-21T11:23:37;15.50;;;6.80;;
36799;SDS011;22752;51.960;5.886;2024-02-21T11:26:06;14.47;;;7.40;;
36799;SDS011;22752;51.960;5.886;2024-02-21T11:28:33;13.37;;;6.40;;
36799;SDS011;22752;51.960;5.886;2024-02-21T11:31:09;12.00;;;6.27;;
36799;SDS011;22752;51.960;5.886;2024-02-21T11:33:43;12.93;;;6.17;;
36799;SDS011;22752;51.960;5.886;2024-02-21T11:36:09;12.10;;;5.63;;
36799;SDS011;22752;51.960;5.886;2024-02-21T11:38:35;13.03;;;6.43;;
36799;SDS011;22752;51.960;5.886;2024-02-21T11:41:00;15.67;;;7.17;;
36799;SDS011;22752;51.960;5.886;2024-02-21T11:43:26;10.60;;;6.03;;
36799;SDS011;22752;51.960;5.886;2024-02-21T11:46:01;11.17;;;6.70;;
36799;SDS011;22752;51.960;5.886;2024-02-21T11:48:29;13.53;;;5.63;;
36799;SDS011;22752;51.960;5.886;2024-02-21T11:50:56;10.60;;;6.20;;
36799;SDS011;22752;51.960;5.886;2024-02-21T11:53:22;10.60;;;5.70;;
36799;SDS011;22752;51.960;5.886;2024-02-21T11:55:49;11.33;;;5.87;;
36799;SDS011;22752;51.960;5.886;2024-02-21T11:58:15;12.30;;;6.80;;
36799;SDS011;22752;51.960;5.886;2024-02-21T12:00:41;9.70;;;6.03;;
36799;SDS011;22752;51.960;5.886;2024-02-21T12:03:07;13.20;;;6.23;;
36799;SDS011;22752;51.960;5.886;2024-02-21T12:05:33;9.60;;;5.50;;
36799;SDS011;22752;51.960;5.886;2024-02-21T12:07:59;14.33;;;6.13;;
36799;SDS011;22752;51.960;5.886;2024-02-21T12:10:25;11.27;;;5.30;;
36799;SDS011;22752;51.960;5.886;2024-02-21T12:12:52;12.53;;;5.50;;
36799;SDS011;22752;51.960;5.886;2024-02-21T12:15:19;11.20;;;5.47;;
36799;SDS011;22752;51.960;5.886;2024-02-21T12:17:45;17.67;;;5.80;;
36799;SDS011;22752;51.960;5.886;2024-02-21T12:20:11;13.33;;;5.47;;
36799;SDS011;22752;51.960;5.886;2024-02-21T12:22:48;9.90;;;5.00;;
36799;SDS011;22752;51.960;5.886;2024-02-21T12:25:18;10.20;;;4.73;;
36799;SDS011;22752;51.960;5.886;2024-02-21T12:27:45;15.03;;;5.37;;
36799;SDS011;22752;51.960;5.886;2024-02-21T12:30:11;11.37;;;5.07;;
36799;SDS011;22752;51.960;5.886;2024-02-21T12:32:37;9.30;;;5.20;;
36799;SDS011;22752;51.960;5.886;2024-02-21T12:35:03;13.00;;;4.37;;
36799;SDS011;22752;51.960;5.886;2024-02-21T12:37:29;11.55;;;4.80;;
36799;SDS011;22752;51.960;5.886;2024-02-21T12:39:54;9.02;;;4.60;;
36799;SDS011;22752;51.960;5.886;2024-02-21T12:42:20;9.45;;;4.82;;
36799;SDS011;22752;51.960;5.886;2024-02-21T12:44:46;7.07;;;4.40;;
36799;SDS011;22752;51.960;5.886;2024-02-21T12:47:11;9.37;;;5.03;;
36799;SDS011;22752;51.960;5.886;2024-02-21T12:49:37;12.38;;;4.32;;
36799;SDS011;22752;51.960;5.886;2024-02-21T12:52:03;13.05;;;4.57;;
36799;SDS011;22752;51.960;5.886;2024-02-21T12:54:29;9.63;;;4.22;;
36799;SDS011;22752;51.960;5.886;2024-02-21T12:56:56;10.02;;;4.05;;
36799;SDS011;22752;51.960;5.886;2024-02-21T12:59:27;14.97;;;7.00;;
36799;SDS011;22752;51.960;5.886;2024-02-21T13:01:53;17.40;;;9.57;;
36799;SDS011;22752;51.960;5.886;2024-02-21T13:04:19;10.80;;;4.68;;
36799;SDS011;22752;51.960;5.886;2024-02-21T13:06:47;11.38;;;3.85;;
36799;SDS011;22752;51.960;5.886;2024-02-21T13:09:13;8.98;;;4.13;;
36799;SDS011;22752;51.960;5.886;2024-02-21T13:11:39;10.02;;;4.50;;
36799;SDS011;22752;51.960;5.886;2024-02-21T13:14:06;12.93;;;4.60;;
36799;SDS011;22752;51.960;5.886;2024-02-21T13:16:32;11.88;;;4.55;;
36799;SDS011;22752;51.960;5.886;2024-02-21T13:19:04;11.60;;;4.25;;
36799;SDS011;22752;51.960;5.886;2024-02-21T13:21:30;7.90;;;3.60;;
36799;SDS011;22752;51.960;5.886;2024-02-21T13:23:55;13.00;;;4.22;;
36799;SDS011;22752;51.960;5.886;2024-02-21T13:26:21;9.88;;;3.78;;
36799;SDS011;22752;51.960;5.886;2024-02-21T13:28:47;14.10;;;4.90;;
36799;SDS011;22752;51.960;5.886;2024-02-21T13:31:13;10.17;;;4.60;;
36799;SDS011;22752;51.960;5.886;2024-02-21T13:33:41;10.98;;;4.82;;
36799;SDS011;22752;51.960;5.886;2024-02-21T13:36:07;11.88;;;4.18;;
36799;SDS011;22752;51.960;5.886;2024-02-21T13:38:33;12.73;;;4.45;;
36799;SDS011;22752;51.960;5.886;2024-02-21T13:40:58;10.03;;;4.47;;
36799;SDS011;22752;51.960;5.886;2024-02-21T13:43:25;10.75;;;4.60;;
36799;SDS011;22752;51.960;5.886;2024-02-21T13:45:57;10.55;;;4.43;;
36799;SDS011;22752;51.960;5.886;2024-02-21T13:48:34;10.98;;;4.20;;
36799;SDS011;22752;51.960;5.886;2024-02-21T13:51:00;11.30;;;4.13;;
36799;SDS011;22752;51.960;5.886;2024-02-21T13:53:27;14.40;;;5.22;;
36799;SDS011;22752;51.960;5.886;2024-02-21T13:55:53;12.00;;;4.28;;
36799;SDS011;22752;51.960;5.886;2024-02-21T13:58:18;11.63;;;4.50;;
36799;SDS011;22752;51.960;5.886;2024-02-21T14:00:45;11.90;;;4.45;;
36799;SDS011;22752;51.960;5.886;2024-02-21T14:03:10;11.77;;;4.60;;
36799;SDS011;22752;51.960;5.886;2024-02-21T14:05:36;12.70;;;4.90;;
36799;SDS011;22752;51.960;5.886;2024-02-21T14:08:02;9.98;;;4.72;;
36799;SDS011;22752;51.960;5.886;2024-02-21T14:10:27;12.90;;;4.80;;
36799;SDS011;22752;51.960;5.886;2024-02-21T14:12:53;13.80;;;5.57;;
36799;SDS011;22752;51.960;5.886;2024-02-21T14:15:20;11.48;;;4.75;;
36799;SDS011;22752;51.960;5.886;2024-02-21T14:17:45;10.13;;;4.38;;
36799;SDS011;22752;51.960;5.886;2024-02-21T14:20:12;10.80;;;4.25;;
36799;SDS011;22752;51.960;5.886;2024-02-21T14:22:39;9.05;;;3.50;;
36799;SDS011;22752;51.960;5.886;2024-02-21T14:25:04;11.40;;;3.70;;
36799;SDS011;22752;51.960;5.886;2024-02-21T14:27:30;9.85;;;2.97;;
36799;SDS011;22752;51.960;5.886;2024-02-21T14:29:57;10.10;;;3.00;;
36799;SDS011;22752;51.960;5.886;2024-02-21T14:32:23;10.48;;;3.58;;
36799;SDS011;22752;51.960;5.886;2024-02-21T14:34:49;11.55;;;3.05;;
36799;SDS011;22752;51.960;5.886;2024-02-21T14:37:17;7.43;;;3.17;;
36799;SDS011;22752;51.960;5.886;2024-02-21T14:39:42;8.93;;;2.90;;
36799;SDS011;22752;51.960;5.886;2024-02-21T14:42:08;11.23;;;2.97;;